sensor_id;sensor_type;location;lat;lon;timestamp;P1;durP1;ratioP1;P2;durP2;ratioP2
28958;SDS011;16066;0.000;0.000;2023-07-31T05:31:01;7.63;;;4.67;;
28958;SDS011;16066;0.000;0.000;2023-07-31T05:33:30;8.80;;;4.53;;
28958;SDS011;16066;0.000;0.000;2023-07-31T05:35:56;5.83;;;3.90;;
28958;SDS011;16066;0.000;0.000;2023-07-31T05:38:22;8.13;;;5.20;;
28958;SDS011;16066;0.000;0.000;2023-07-31T05:40:47;7.17;;;4.00;;
28958;SDS011;16066;0.000;0.000;2023-07-31T05:43:13;6.50;;;3.80;;
28958;SDS011;16066;0.000;0.000;2023-07-31T05:45:42;9.03;;;4.13;;
28958;SDS011;16066;0.000;0.000;2023-07-31T05:48:07;7.50;;;3.83;;
28958;SDS011;16066;0.000;0.000;2023-07-31T05:50:33;10.67;;;4.17;;
28958;SDS011;16066;0.000;0.000;2023-07-31T05:52:58;8.80;;;3.70;;
28958;SDS011;16066;0.000;0.000;2023-07-31T05:55:24;8.53;;;4.73;;
28958;SDS011;16066;0.000;0.000;2023-07-31T05:57:52;9.27;;;4.63;;
28958;SDS011;16066;0.000;0.000;2023-07-31T06:00:18;6.90;;;3.73;;
28958;SDS011;16066;0.000;0.000;2023-07-31T06:02:43;8.80;;;4.80;;
28958;SDS011;16066;0.000;0.000;2023-07-31T06:05:09;11.80;;;4.70;;
28958;SDS011;16066;0.000;0.000;2023-07-31T06:07:35;6.57;;;3.93;;
28958;SDS011;16066;0.000;0.000;2023-07-31T06:10:00;7.17;;;4.17;;
28958;SDS011;16066;0.000;0.000;2023-07-31T06:12:29;5.90;;;4.40;;
28958;SDS011;16066;0.000;0.000;2023-07-31T06:14:56;5.93;;;3.57;;
28958;SDS011;16066;0.000;0.000;2023-07-31T06:17:21;8.17;;;3.40;;
28958;SDS011;16066;0.000;0.000;2023-07-31T06:19:47;7.07;;;3.80;;
28958;SDS011;16066;0.000;0.000;2023-07-31T06:22:14;5.93;;;3.73;;
28958;SDS011;16066;0.000;0.000;2023-07-31T06:24:39;6.47;;;3.97;;
28958;SDS011;16066;0.000;0.000;2023-07-31T06:27:05;7.37;;;3.50;;
28958;SDS011;16066;0.000;0.000;2023-07-31T06:29:31;6.93;;;4.10;;
28958;SDS011;16066;0.000;0.000;2023-07-31T06:31:57;12.50;;;3.70;;
28958;SDS011;16066;0.000;0.000;2023-07-31T06:34:22;7.50;;;3.93;;
28958;SDS011;16066;0.000;0.000;2023-07-31T06:36:48;8.37;;;4.10;;
28958;SDS011;16066;0.000;0.000;2023-07-31T06:39:13;8.03;;;4.23;;
28958;SDS011;16066;0.000;0.000;2023-07-31T06:41:39;11.77;;;3.57;;
28958;SDS011;16066;0.000;0.000;2023-07-31T06:44:04;7.27;;;4.20;;
28958;SDS011;16066;0.000;0.000;2023-07-31T06:46:30;7.20;;;4.83;;
28958;SDS011;16066;0.000;0.000;2023-07-31T06:48:55;7.00;;;3.60;;
28958;SDS011;16066;0.000;0.000;2023-07-31T06:51:21;5.70;;;3.90;;
28958;SDS011;16066;0.000;0.000;2023-07-31T06:53:46;7.77;;;4.37;;
28958;SDS011;16066;0.000;0.000;2023-07-31T06:56:12;7.40;;;4.33;;
28958;SDS011;16066;0.000;0.000;2023-07-31T06:58:38;7.13;;;3.97;;
28958;SDS011;16066;0.000;0.000;2023-07-31T07:01:04;10.20;;;3.63;;
28958;SDS011;16066;0.000;0.000;2023-07-31T07:03:29;10.60;;;4.13;;
28958;SDS011;16066;0.000;0.000;2023-07-31T07:05:55;6.63;;;3.70;;
28958;SDS011;16066;0.000;0.000;2023-07-31T07:08:21;6.50;;;4.50;;
28958;SDS011;16066;0.000;0.000;2023-07-31T07:10:46;5.03;;;3.57;;
28958;SDS011;16066;0.000;0.000;2023-07-31T07:13:12;4.63;;;3.17;;
28958;SDS011;16066;0.000;0.000;2023-07-31T07:15:38;8.70;;;3.33;;
28958;SDS011;16066;0.000;0.000;2023-07-31T07:18:04;5.37;;;3.90;;
28958;SDS011;16066;0.000;0.000;2023-07-31T07:20:29;9.57;;;3.70;;
28958;SDS011;16066;0.000;0.000;2023-07-31T07:22:55;5.40;;;3.30;;
28958;SDS011;16066;0.000;0.000;2023-07-31T07:25:20;9.30;;;3.17;;
28958;SDS011;16066;0.000;0.000;2023-07-31T07:27:46;7.43;;;4.13;;
28958;SDS011;16066;0.000;0.000;2023-07-31T07:30:12;5.10;;;3.70;;
28958;SDS011;16066;0.000;0.000;2023-07-31T07:32:39;6.87;;;3.33;;
28958;SDS011;16066;0.000;0.000;2023-07-31T07:35:04;8.70;;;4.00;;
28958;SDS011;16066;0.000;0.000;2023-07-31T07:37:31;10.00;;;3.63;;
28958;SDS011;16066;0.000;0.000;2023-07-31T07:39:56;7.60;;;3.57;;
28958;SDS011;16066;0.000;0.000;2023-07-31T07:42:22;6.93;;;3.50;;
28958;SDS011;16066;0.000;0.000;2023-07-31T07:44:48;5.50;;;3.83;;
28958;SDS011;16066;0.000;0.000;2023-07-31T07:47:14;6.03;;;4.43;;
28958;SDS011;16066;0.000;0.000;2023-07-31T07:49:39;8.20;;;4.30;;
28958;SDS011;16066;0.000;0.000;2023-07-31T07:52:05;7.03;;;3.23;;
28958;SDS011;16066;0.000;0.000;2023-07-31T07:54:30;5.80;;;3.97;;
28958;SDS011;16066;0.000;0.000;2023-07-31T07:56:56;8.20;;;4.00;;
28958;SDS011;16066;0.000;0.000;2023-07-31T07:59:22;9.97;;;4.10;;
28958;SDS011;16066;0.000;0.000;2023-07-31T08:01:47;5.13;;;3.20;;
28958;SDS011;16066;0.000;0.000;2023-07-31T08:04:13;6.17;;;3.67;;
28958;SDS011;16066;0.000;0.000;2023-07-31T08:06:38;14.03;;;4.90;;
28958;SDS011;16066;0.000;0.000;2023-07-31T08:09:04;9.10;;;4.07;;
28958;SDS011;16066;0.000;0.000;2023-07-31T08:11:31;7.73;;;3.47;;
28958;SDS011;16066;0.000;0.000;2023-07-31T08:13:57;7.10;;;4.00;;
28958;SDS011;16066;0.000;0.000;2023-07-31T08:16:23;7.60;;;4.03;;
28958;SDS011;16066;0.000;0.000;2023-07-31T08:18:48;7.17;;;3.93;;
28958;SDS011;16066;0.000;0.000;2023-07-31T08:21:14;5.33;;;3.40;;
28958;SDS011;16066;0.000;0.000;2023-07-31T08:23:40;5.37;;;3.10;;
28958;SDS011;16066;0.000;0.000;2023-07-31T08:26:06;6.60;;;3.57;;
28958;SDS011;16066;0.000;0.000;2023-07-31T08:28:31;11.20;;;3.17;;
28958;SDS011;16066;0.000;0.000;2023-07-31T08:30:57;6.60;;;2.93;;
28958;SDS011;16066;0.000;0.000;2023-07-31T08:33:23;5.33;;;3.50;;
28958;SDS011;16066;0.000;0.000;2023-07-31T08:35:48;4.87;;;3.40;;
28958;SDS011;16066;0.000;0.000;2023-07-31T08:38:14;5.20;;;2.70;;
28958;SDS011;16066;0.000;0.000;2023-07-31T08:40:39;3.70;;;2.40;;
28958;SDS011;16066;0.000;0.000;2023-07-31T08:43:05;6.33;;;3.17;;
28958;SDS011;16066;0.000;0.000;2023-07-31T08:45:32;8.93;;;3.10;;
28958;SDS011;16066;0.000;0.000;2023-07-31T08:47:58;7.83;;;2.90;;
28958;SDS011;16066;0.000;0.000;2023-07-31T08:50:24;5.60;;;3.00;;
28958;SDS011;16066;0.000;0.000;2023-07-31T08:52:50;3.90;;;2.60;;
28958;SDS011;16066;0.000;0.000;2023-07-31T08:55:17;3.97;;;3.00;;
28958;SDS011;16066;0.000;0.000;2023-07-31T08:57:48;4.77;;;2.47;;
28958;SDS011;16066;0.000;0.000;2023-07-31T09:00:15;4.33;;;2.90;;
28958;SDS011;16066;0.000;0.000;2023-07-31T09:03:01;4.83;;;3.43;;
28958;SDS011;16066;0.000;0.000;2023-07-31T09:05:28;4.70;;;3.20;;
28958;SDS011;16066;0.000;0.000;2023-07-31T09:07:56;4.70;;;2.60;;
28958;SDS011;16066;0.000;0.000;2023-07-31T09:10:22;5.70;;;2.83;;
28958;SDS011;16066;0.000;0.000;2023-07-31T09:12:48;4.37;;;2.90;;
28958;SDS011;16066;0.000;0.000;2023-07-31T09:15:15;4.33;;;2.90;;
28958;SDS011;16066;0.000;0.000;2023-07-31T09:17:41;6.80;;;3.10;;
28958;SDS011;16066;0.000;0.000;2023-07-31T09:20:20;8.93;;;3.20;;
28958;SDS011;16066;0.000;0.000;2023-07-31T09:22:46;6.00;;;2.80;;
28958;SDS011;16066;0.000;0.000;2023-07-31T09:25:20;3.60;;;2.63;;
28958;SDS011;16066;0.000;0.000;2023-07-31T09:30:18;4.30;;;2.47;;
28958;SDS011;16066;0.000;0.000;2023-07-31T09:32:44;4.00;;;2.83;;
28958;SDS011;16066;0.000;0.000;2023-07-31T09:35:18;3.73;;;3.00;;
28958;SDS011;16066;0.000;0.000;2023-07-31T09:37:47;5.73;;;3.20;;
28958;SDS011;16066;0.000;0.000;2023-07-31T09:40:24;3.63;;;2.60;;
28958;SDS011;16066;0.000;0.000;2023-07-31T09:43:01;4.00;;;2.40;;
28958;SDS011;16066;0.000;0.000;2023-07-31T09:45:29;4.80;;;2.90;;
28958;SDS011;16066;0.000;0.000;2023-07-31T09:47:55;4.40;;;2.90;;
28958;SDS011;16066;0.000;0.000;2023-07-31T09:50:22;3.10;;;2.20;;
28958;SDS011;16066;0.000;0.000;2023-07-31T09:52:50;4.37;;;2.60;;
28958;SDS011;16066;0.000;0.000;2023-07-31T09:55:16;2.57;;;2.23;;
28958;SDS011;16066;0.000;0.000;2023-07-31T09:57:46;4.53;;;2.67;;
28958;SDS011;16066;0.000;0.000;2023-07-31T10:00:14;4.60;;;2.43;;
28958;SDS011;16066;0.000;0.000;2023-07-31T10:02:41;3.50;;;2.70;;
28958;SDS011;16066;0.000;0.000;2023-07-31T10:05:10;4.80;;;2.50;;
28958;SDS011;16066;0.000;0.000;2023-07-31T10:07:38;5.97;;;2.93;;
28958;SDS011;16066;0.000;0.000;2023-07-31T10:10:07;5.70;;;3.20;;
28958;SDS011;16066;0.000;0.000;2023-07-31T10:12:36;3.57;;;2.80;;
28958;SDS011;16066;0.000;0.000;2023-07-31T10:15:02;2.80;;;2.10;;
28958;SDS011;16066;0.000;0.000;2023-07-31T10:17:29;3.67;;;2.60;;
28958;SDS011;16066;0.000;0.000;2023-07-31T10:19:56;3.10;;;2.30;;
28958;SDS011;16066;0.000;0.000;2023-07-31T10:22:26;3.63;;;2.40;;
28958;SDS011;16066;0.000;0.000;2023-07-31T10:24:52;3.30;;;2.30;;
28958;SDS011;16066;0.000;0.000;2023-07-31T10:27:19;3.23;;;2.20;;
28958;SDS011;16066;0.000;0.000;2023-07-31T10:29:45;11.13;;;3.50;;
28958;SDS011;16066;0.000;0.000;2023-07-31T10:32:13;4.10;;;2.30;;
28958;SDS011;16066;0.000;0.000;2023-07-31T10:34:41;4.80;;;2.40;;
28958;SDS011;16066;0.000;0.000;2023-07-31T10:40:02;3.60;;;2.27;;
28958;SDS011;16066;0.000;0.000;2023-07-31T10:42:35;4.77;;;2.73;;
28958;SDS011;16066;0.000;0.000;2023-07-31T10:45:06;3.07;;;2.27;;
28958;SDS011;16066;0.000;0.000;2023-07-31T10:47:38;4.40;;;2.77;;
28958;SDS011;16066;0.000;0.000;2023-07-31T10:52:49;2.93;;;2.50;;
28958;SDS011;16066;0.000;0.000;2023-07-31T10:58:06;3.33;;;2.43;;
28958;SDS011;16066;0.000;0.000;2023-07-31T11:00:37;4.30;;;2.37;;
28958;SDS011;16066;0.000;0.000;2023-07-31T11:03:05;4.20;;;2.50;;
28958;SDS011;16066;0.000;0.000;2023-07-31T11:10:46;3.50;;;2.80;;
28958;SDS011;16066;0.000;0.000;2023-07-31T11:13:12;4.50;;;2.80;;
28958;SDS011;16066;0.000;0.000;2023-07-31T11:15:39;7.00;;;3.13;;
28958;SDS011;16066;0.000;0.000;2023-07-31T11:18:04;2.60;;;2.10;;
28958;SDS011;16066;0.000;0.000;2023-07-31T11:20:33;4.83;;;2.47;;
28958;SDS011;16066;0.000;0.000;2023-07-31T11:23:00;3.53;;;2.27;;
28958;SDS011;16066;0.000;0.000;2023-07-31T11:25:33;5.70;;;3.00;;
28958;SDS011;16066;0.000;0.000;2023-07-31T11:28:06;3.17;;;2.47;;
28958;SDS011;16066;0.000;0.000;2023-07-31T11:30:36;2.40;;;2.10;;
28958;SDS011;16066;0.000;0.000;2023-07-31T11:33:03;3.60;;;2.70;;
28958;SDS011;16066;0.000;0.000;2023-07-31T11:35:30;4.10;;;2.50;;
28958;SDS011;16066;0.000;0.000;2023-07-31T11:37:56;7.40;;;2.33;;
28958;SDS011;16066;0.000;0.000;2023-07-31T11:40:22;3.97;;;2.67;;
28958;SDS011;16066;0.000;0.000;2023-07-31T11:42:53;8.30;;;2.47;;
28958;SDS011;16066;0.000;0.000;2023-07-31T11:45:19;2.50;;;2.10;;
28958;SDS011;16066;0.000;0.000;2023-07-31T11:47:45;6.23;;;2.90;;
28958;SDS011;16066;0.000;0.000;2023-07-31T11:50:11;2.93;;;2.10;;
28958;SDS011;16066;0.000;0.000;2023-07-31T11:52:43;2.37;;;2.07;;
28958;SDS011;16066;0.000;0.000;2023-07-31T11:55:11;4.60;;;2.73;;
28958;SDS011;16066;0.000;0.000;2023-07-31T11:57:38;3.83;;;2.67;;
28958;SDS011;16066;0.000;0.000;2023-07-31T12:00:05;6.03;;;2.30;;
28958;SDS011;16066;0.000;0.000;2023-07-31T12:02:38;2.60;;;2.10;;
28958;SDS011;16066;0.000;0.000;2023-07-31T12:05:11;2.63;;;2.23;;
28958;SDS011;16066;0.000;0.000;2023-07-31T12:07:50;7.57;;;3.70;;
28958;SDS011;16066;0.000;0.000;2023-07-31T12:10:30;5.03;;;2.20;;
28958;SDS011;16066;0.000;0.000;2023-07-31T12:13:01;3.70;;;2.13;;
28958;SDS011;16066;0.000;0.000;2023-07-31T12:15:38;3.10;;;2.13;;
28958;SDS011;16066;0.000;0.000;2023-07-31T12:18:06;2.70;;;2.13;;
28958;SDS011;16066;0.000;0.000;2023-07-31T12:20:33;3.30;;;2.20;;
28958;SDS011;16066;0.000;0.000;2023-07-31T12:22:59;3.90;;;2.23;;
28958;SDS011;16066;0.000;0.000;2023-07-31T12:25:31;2.53;;;1.80;;
28958;SDS011;16066;0.000;0.000;2023-07-31T12:27:57;3.33;;;2.27;;
28958;SDS011;16066;0.000;0.000;2023-07-31T12:30:34;3.40;;;2.20;;
28958;SDS011;16066;0.000;0.000;2023-07-31T12:33:07;2.47;;;1.93;;
28958;SDS011;16066;0.000;0.000;2023-07-31T12:35:41;3.37;;;2.40;;
28958;SDS011;16066;0.000;0.000;2023-07-31T12:38:09;2.10;;;1.80;;
28958;SDS011;16066;0.000;0.000;2023-07-31T12:40:37;1.77;;;1.63;;
28958;SDS011;16066;0.000;0.000;2023-07-31T12:43:03;2.73;;;2.03;;
28958;SDS011;16066;0.000;0.000;2023-07-31T12:45:29;2.70;;;2.23;;
28958;SDS011;16066;0.000;0.000;2023-07-31T12:47:55;2.17;;;1.80;;
28958;SDS011;16066;0.000;0.000;2023-07-31T12:50:21;2.33;;;2.10;;
28958;SDS011;16066;0.000;0.000;2023-07-31T12:52:48;2.23;;;1.93;;
28958;SDS011;16066;0.000;0.000;2023-07-31T12:55:14;2.53;;;1.97;;
28958;SDS011;16066;0.000;0.000;2023-07-31T12:57:40;2.17;;;1.73;;
28958;SDS011;16066;0.000;0.000;2023-07-31T13:00:07;2.70;;;2.07;;
28958;SDS011;16066;0.000;0.000;2023-07-31T13:02:33;2.47;;;1.70;;
28958;SDS011;16066;0.000;0.000;2023-07-31T13:04:58;2.20;;;1.70;;
28958;SDS011;16066;0.000;0.000;2023-07-31T13:07:24;2.67;;;1.70;;
28958;SDS011;16066;0.000;0.000;2023-07-31T13:09:50;2.07;;;1.70;;
28958;SDS011;16066;0.000;0.000;2023-07-31T13:12:16;3.23;;;1.90;;
28958;SDS011;16066;0.000;0.000;2023-07-31T13:14:41;3.00;;;1.80;;
28958;SDS011;16066;0.000;0.000;2023-07-31T13:17:07;3.47;;;2.30;;
28958;SDS011;16066;0.000;0.000;2023-07-31T13:19:32;3.37;;;1.93;;
28958;SDS011;16066;0.000;0.000;2023-07-31T13:21:58;2.13;;;1.70;;
28958;SDS011;16066;0.000;0.000;2023-07-31T13:24:23;3.40;;;1.90;;
28958;SDS011;16066;0.000;0.000;2023-07-31T13:26:49;3.63;;;2.50;;
28958;SDS011;16066;0.000;0.000;2023-07-31T13:29:14;4.43;;;2.30;;
28958;SDS011;16066;0.000;0.000;2023-07-31T13:31:40;2.27;;;2.00;;
28958;SDS011;16066;0.000;0.000;2023-07-31T13:34:05;4.60;;;2.20;;
28958;SDS011;16066;0.000;0.000;2023-07-31T13:36:31;2.97;;;2.00;;
28958;SDS011;16066;0.000;0.000;2023-07-31T13:38:58;2.90;;;1.70;;
28958;SDS011;16066;0.000;0.000;2023-07-31T13:41:24;1.80;;;1.70;;
28958;SDS011;16066;0.000;0.000;2023-07-31T13:43:50;2.77;;;1.63;;
28958;SDS011;16066;0.000;0.000;2023-07-31T13:46:15;2.73;;;2.00;;
28958;SDS011;16066;0.000;0.000;2023-07-31T13:48:41;6.20;;;2.37;;
28958;SDS011;16066;0.000;0.000;2023-07-31T13:51:06;3.50;;;2.00;;
28958;SDS011;16066;0.000;0.000;2023-07-31T13:53:32;3.93;;;2.27;;
28958;SDS011;16066;0.000;0.000;2023-07-31T13:55:57;3.93;;;2.30;;
28958;SDS011;16066;0.000;0.000;2023-07-31T13:58:23;3.30;;;2.13;;
28958;SDS011;16066;0.000;0.000;2023-07-31T14:00:48;3.83;;;2.27;;
28958;SDS011;16066;0.000;0.000;2023-07-31T14:03:14;3.27;;;2.17;;
28958;SDS011;16066;0.000;0.000;2023-07-31T14:05:39;4.07;;;2.40;;
28958;SDS011;16066;0.000;0.000;2023-07-31T14:08:05;6.60;;;2.50;;
28958;SDS011;16066;0.000;0.000;2023-07-31T14:10:31;2.83;;;2.20;;
28958;SDS011;16066;0.000;0.000;2023-07-31T14:12:56;5.20;;;2.10;;
28958;SDS011;16066;0.000;0.000;2023-07-31T14:15:22;4.37;;;2.40;;
28958;SDS011;16066;0.000;0.000;2023-07-31T14:17:47;2.90;;;2.13;;
28958;SDS011;16066;0.000;0.000;2023-07-31T14:20:13;2.33;;;2.13;;
28958;SDS011;16066;0.000;0.000;2023-07-31T14:22:38;4.10;;;2.50;;
28958;SDS011;16066;0.000;0.000;2023-07-31T14:25:04;4.53;;;2.30;;
28958;SDS011;16066;0.000;0.000;2023-07-31T14:27:30;2.80;;;2.23;;
28958;SDS011;16066;0.000;0.000;2023-07-31T14:29:55;2.43;;;2.23;;
28958;SDS011;16066;0.000;0.000;2023-07-31T14:32:24;5.27;;;2.60;;
28958;SDS011;16066;0.000;0.000;2023-07-31T14:34:50;3.67;;;2.73;;
28958;SDS011;16066;0.000;0.000;2023-07-31T14:37:16;2.57;;;1.80;;
28958;SDS011;16066;0.000;0.000;2023-07-31T14:39:42;2.47;;;2.10;;
28958;SDS011;16066;0.000;0.000;2023-07-31T14:42:08;3.00;;;2.40;;
28958;SDS011;16066;0.000;0.000;2023-07-31T14:44:34;2.90;;;2.40;;
28958;SDS011;16066;0.000;0.000;2023-07-31T14:46:59;2.90;;;2.53;;
28958;SDS011;16066;0.000;0.000;2023-07-31T14:49:25;3.20;;;2.13;;
28958;SDS011;16066;0.000;0.000;2023-07-31T14:51:52;2.60;;;2.37;;
28958;SDS011;16066;0.000;0.000;2023-07-31T14:54:17;2.83;;;2.23;;
28958;SDS011;16066;0.000;0.000;2023-07-31T14:56:43;3.47;;;2.53;;
28958;SDS011;16066;0.000;0.000;2023-07-31T14:59:08;2.83;;;2.50;;
28958;SDS011;16066;0.000;0.000;2023-07-31T15:01:34;2.93;;;2.37;;
28958;SDS011;16066;0.000;0.000;2023-07-31T15:04:00;2.53;;;2.30;;
28958;SDS011;16066;0.000;0.000;2023-07-31T15:06:26;2.70;;;2.20;;
28958;SDS011;16066;0.000;0.000;2023-07-31T15:08:51;3.77;;;2.30;;
28958;SDS011;16066;0.000;0.000;2023-07-31T15:11:16;2.90;;;2.30;;
28958;SDS011;16066;0.000;0.000;2023-07-31T15:13:43;4.67;;;2.47;;
28958;SDS011;16066;0.000;0.000;2023-07-31T15:16:09;3.23;;;2.33;;
28958;SDS011;16066;0.000;0.000;2023-07-31T15:18:34;4.20;;;2.50;;
28958;SDS011;16066;0.000;0.000;2023-07-31T15:21:00;4.10;;;2.60;;
28958;SDS011;16066;0.000;0.000;2023-07-31T15:23:25;3.50;;;2.30;;
28958;SDS011;16066;0.000;0.000;2023-07-31T15:25:51;3.10;;;2.47;;
28958;SDS011;16066;0.000;0.000;2023-07-31T15:28:17;4.27;;;2.83;;
28958;SDS011;16066;0.000;0.000;2023-07-31T15:30:43;5.50;;;2.40;;
28958;SDS011;16066;0.000;0.000;2023-07-31T15:33:09;4.20;;;2.60;;
28958;SDS011;16066;0.000;0.000;2023-07-31T15:35:34;4.30;;;2.87;;
28958;SDS011;16066;0.000;0.000;2023-07-31T15:38:00;6.27;;;2.90;;
28958;SDS011;16066;0.000;0.000;2023-07-31T15:40:25;3.03;;;2.73;;
28958;SDS011;16066;0.000;0.000;2023-07-31T15:42:51;6.00;;;2.67;;
28958;SDS011;16066;0.000;0.000;2023-07-31T15:45:17;4.00;;;2.80;;
28958;SDS011;16066;0.000;0.000;2023-07-31T15:47:42;3.67;;;2.43;;
28958;SDS011;16066;0.000;0.000;2023-07-31T15:50:08;4.50;;;3.07;;
28958;SDS011;16066;0.000;0.000;2023-07-31T15:52:33;4.00;;;3.30;;
28958;SDS011;16066;0.000;0.000;2023-07-31T15:54:59;4.30;;;2.90;;
28958;SDS011;16066;0.000;0.000;2023-07-31T15:57:24;6.03;;;2.87;;
28958;SDS011;16066;0.000;0.000;2023-07-31T15:59:50;4.13;;;2.80;;
28958;SDS011;16066;0.000;0.000;2023-07-31T16:02:15;3.80;;;2.70;;
28958;SDS011;16066;0.000;0.000;2023-07-31T16:04:41;3.13;;;2.70;;
28958;SDS011;16066;0.000;0.000;2023-07-31T16:07:06;4.03;;;3.03;;
28958;SDS011;16066;0.000;0.000;2023-07-31T16:09:32;2.83;;;2.57;;
28958;SDS011;16066;0.000;0.000;2023-07-31T16:11:57;3.23;;;2.67;;
28958;SDS011;16066;0.000;0.000;2023-07-31T16:14:23;3.70;;;2.63;;
28958;SDS011;16066;0.000;0.000;2023-07-31T16:16:49;5.17;;;2.60;;
28958;SDS011;16066;0.000;0.000;2023-07-31T16:19:14;5.70;;;3.33;;
28958;SDS011;16066;0.000;0.000;2023-07-31T16:21:40;4.43;;;3.47;;
28958;SDS011;16066;0.000;0.000;2023-07-31T16:24:05;4.87;;;3.20;;
28958;SDS011;16066;0.000;0.000;2023-07-31T16:26:31;3.50;;;2.77;;
28958;SDS011;16066;0.000;0.000;2023-07-31T16:28:58;5.87;;;3.00;;
28958;SDS011;16066;0.000;0.000;2023-07-31T16:31:23;4.10;;;3.23;;
28958;SDS011;16066;0.000;0.000;2023-07-31T16:33:50;4.17;;;3.23;;
28958;SDS011;16066;0.000;0.000;2023-07-31T16:36:16;3.90;;;2.97;;
28958;SDS011;16066;0.000;0.000;2023-07-31T16:38:44;4.70;;;3.17;;
28958;SDS011;16066;0.000;0.000;2023-07-31T16:41:09;4.50;;;2.93;;
28958;SDS011;16066;0.000;0.000;2023-07-31T16:43:35;3.83;;;2.87;;
28958;SDS011;16066;0.000;0.000;2023-07-31T16:46:01;4.53;;;3.03;;
28958;SDS011;16066;0.000;0.000;2023-07-31T16:48:26;3.93;;;3.00;;
28958;SDS011;16066;0.000;0.000;2023-07-31T16:50:52;4.47;;;3.20;;
28958;SDS011;16066;0.000;0.000;2023-07-31T16:53:17;4.50;;;3.20;;
28958;SDS011;16066;0.000;0.000;2023-07-31T16:55:43;5.67;;;3.30;;
28958;SDS011;16066;0.000;0.000;2023-07-31T16:58:08;3.53;;;2.70;;
28958;SDS011;16066;0.000;0.000;2023-07-31T17:00:34;4.23;;;3.17;;
28958;SDS011;16066;0.000;0.000;2023-07-31T17:02:59;4.00;;;3.00;;
28958;SDS011;16066;0.000;0.000;2023-07-31T17:05:26;3.73;;;2.90;;
28958;SDS011;16066;0.000;0.000;2023-07-31T17:07:51;2.97;;;2.67;;
28958;SDS011;16066;0.000;0.000;2023-07-31T17:10:17;6.60;;;3.40;;
28958;SDS011;16066;0.000;0.000;2023-07-31T17:12:42;4.53;;;3.80;;
28958;SDS011;16066;0.000;0.000;2023-07-31T17:15:08;4.40;;;2.93;;
28958;SDS011;16066;0.000;0.000;2023-07-31T17:17:33;4.50;;;3.07;;
28958;SDS011;16066;0.000;0.000;2023-07-31T17:19:59;4.53;;;3.37;;
28958;SDS011;16066;0.000;0.000;2023-07-31T17:22:25;3.90;;;3.33;;
28958;SDS011;16066;0.000;0.000;2023-07-31T17:24:50;4.10;;;3.17;;
28958;SDS011;16066;0.000;0.000;2023-07-31T17:27:16;4.50;;;2.87;;
28958;SDS011;16066;0.000;0.000;2023-07-31T17:29:41;4.10;;;3.40;;
28958;SDS011;16066;0.000;0.000;2023-07-31T17:32:07;3.60;;;3.23;;
28958;SDS011;16066;0.000;0.000;2023-07-31T17:34:32;3.87;;;2.70;;
28958;SDS011;16066;0.000;0.000;2023-07-31T17:36:58;3.90;;;2.90;;
28958;SDS011;16066;0.000;0.000;2023-07-31T17:39:24;3.93;;;3.20;;
28958;SDS011;16066;0.000;0.000;2023-07-31T17:41:49;4.37;;;3.13;;
28958;SDS011;16066;0.000;0.000;2023-07-31T17:44:14;6.10;;;3.43;;
28958;SDS011;16066;0.000;0.000;2023-07-31T17:46:40;5.40;;;3.50;;
28958;SDS011;16066;0.000;0.000;2023-07-31T17:49:06;5.03;;;3.60;;
28958;SDS011;16066;0.000;0.000;2023-07-31T17:51:32;5.90;;;2.87;;
28958;SDS011;16066;0.000;0.000;2023-07-31T17:53:58;6.57;;;3.20;;
28958;SDS011;16066;0.000;0.000;2023-07-31T17:56:24;5.20;;;3.60;;
28958;SDS011;16066;0.000;0.000;2023-07-31T17:58:50;3.40;;;2.90;;
28958;SDS011;16066;0.000;0.000;2023-07-31T18:01:16;4.00;;;2.97;;
28958;SDS011;16066;0.000;0.000;2023-07-31T18:03:41;5.77;;;3.17;;
28958;SDS011;16066;0.000;0.000;2023-07-31T18:06:07;5.50;;;2.90;;
28958;SDS011;16066;0.000;0.000;2023-07-31T18:08:32;4.73;;;3.37;;
28958;SDS011;16066;0.000;0.000;2023-07-31T18:10:58;5.50;;;2.37;;
28958;SDS011;16066;0.000;0.000;2023-07-31T18:13:23;3.93;;;2.43;;
28958;SDS011;16066;0.000;0.000;2023-07-31T18:15:49;6.17;;;4.00;;
28958;SDS011;16066;0.000;0.000;2023-07-31T18:18:14;2.80;;;2.00;;
28958;SDS011;16066;0.000;0.000;2023-07-31T18:20:40;3.43;;;2.70;;
28958;SDS011;16066;0.000;0.000;2023-07-31T18:23:06;5.00;;;3.07;;
28958;SDS011;16066;0.000;0.000;2023-07-31T18:25:31;3.60;;;2.70;;
28958;SDS011;16066;0.000;0.000;2023-07-31T18:27:57;4.33;;;3.00;;
28958;SDS011;16066;0.000;0.000;2023-07-31T18:30:22;3.13;;;2.53;;
28958;SDS011;16066;0.000;0.000;2023-07-31T18:32:48;4.07;;;2.67;;
28958;SDS011;16066;0.000;0.000;2023-07-31T18:35:14;3.13;;;2.37;;
28958;SDS011;16066;0.000;0.000;2023-07-31T18:37:41;3.07;;;2.50;;
28958;SDS011;16066;0.000;0.000;2023-07-31T18:40:07;4.23;;;2.50;;
28958;SDS011;16066;0.000;0.000;2023-07-31T18:42:33;4.50;;;2.70;;
28958;SDS011;16066;0.000;0.000;2023-07-31T18:44:59;2.93;;;2.47;;
28958;SDS011;16066;0.000;0.000;2023-07-31T18:47:24;4.23;;;2.50;;
28958;SDS011;16066;0.000;0.000;2023-07-31T18:49:50;3.87;;;2.40;;
28958;SDS011;16066;0.000;0.000;2023-07-31T18:52:15;3.93;;;2.43;;
28958;SDS011;16066;0.000;0.000;2023-07-31T18:54:41;2.33;;;2.10;;
28958;SDS011;16066;0.000;0.000;2023-07-31T18:57:06;3.07;;;2.20;;
28958;SDS011;16066;0.000;0.000;2023-07-31T18:59:32;3.07;;;2.33;;
28958;SDS011;16066;0.000;0.000;2023-07-31T19:01:57;3.90;;;2.80;;
28958;SDS011;16066;0.000;0.000;2023-07-31T19:04:23;2.97;;;2.73;;
28958;SDS011;16066;0.000;0.000;2023-07-31T19:06:48;2.20;;;2.00;;
28958;SDS011;16066;0.000;0.000;2023-07-31T19:09:14;5.50;;;2.33;;
28958;SDS011;16066;0.000;0.000;2023-07-31T19:11:39;3.60;;;2.10;;
28958;SDS011;16066;0.000;0.000;2023-07-31T19:14:06;2.47;;;2.13;;
28958;SDS011;16066;0.000;0.000;2023-07-31T19:16:32;2.47;;;2.13;;
28958;SDS011;16066;0.000;0.000;2023-07-31T19:18:57;3.60;;;1.90;;
28958;SDS011;16066;0.000;0.000;2023-07-31T19:21:24;2.10;;;1.90;;
28958;SDS011;16066;0.000;0.000;2023-07-31T19:23:50;2.13;;;1.93;;
28958;SDS011;16066;0.000;0.000;2023-07-31T19:26:17;1.93;;;1.60;;
28958;SDS011;16066;0.000;0.000;2023-07-31T19:28:43;1.53;;;1.43;;
28958;SDS011;16066;0.000;0.000;2023-07-31T19:31:08;2.20;;;1.80;;
28958;SDS011;16066;0.000;0.000;2023-07-31T19:33:34;2.23;;;1.77;;
28958;SDS011;16066;0.000;0.000;2023-07-31T19:36:00;3.30;;;2.10;;
28958;SDS011;16066;0.000;0.000;2023-07-31T19:38:26;2.03;;;1.77;;
28958;SDS011;16066;0.000;0.000;2023-07-31T19:40:51;2.47;;;2.07;;
28958;SDS011;16066;0.000;0.000;2023-07-31T19:43:17;2.90;;;1.87;;
28958;SDS011;16066;0.000;0.000;2023-07-31T19:45:43;2.47;;;2.03;;
28958;SDS011;16066;0.000;0.000;2023-07-31T19:48:09;3.33;;;1.77;;
28958;SDS011;16066;0.000;0.000;2023-07-31T19:50:35;1.93;;;1.60;;
28958;SDS011;16066;0.000;0.000;2023-07-31T19:53:01;2.40;;;1.77;;
28958;SDS011;16066;0.000;0.000;2023-07-31T19:55:27;2.60;;;1.70;;
28958;SDS011;16066;0.000;0.000;2023-07-31T19:57:54;2.10;;;1.90;;
28958;SDS011;16066;0.000;0.000;2023-07-31T20:00:20;1.87;;;1.60;;
28958;SDS011;16066;0.000;0.000;2023-07-31T20:02:45;1.53;;;1.27;;
28958;SDS011;16066;0.000;0.000;2023-07-31T20:05:11;1.73;;;1.57;;
28958;SDS011;16066;0.000;0.000;2023-07-31T20:07:36;1.73;;;1.47;;
28958;SDS011;16066;0.000;0.000;2023-07-31T20:10:02;2.27;;;1.50;;
28958;SDS011;16066;0.000;0.000;2023-07-31T20:12:28;1.57;;;1.33;;
28958;SDS011;16066;0.000;0.000;2023-07-31T20:14:53;1.60;;;1.50;;
28958;SDS011;16066;0.000;0.000;2023-07-31T20:17:20;1.80;;;1.67;;
28958;SDS011;16066;0.000;0.000;2023-07-31T20:19:46;1.30;;;1.20;;
28958;SDS011;16066;0.000;0.000;2023-07-31T20:22:12;2.90;;;1.60;;
28958;SDS011;16066;0.000;0.000;2023-07-31T20:24:38;1.87;;;1.43;;
28958;SDS011;16066;0.000;0.000;2023-07-31T20:27:03;1.90;;;1.50;;
28958;SDS011;16066;0.000;0.000;2023-07-31T20:29:29;1.50;;;1.40;;
28958;SDS011;16066;0.000;0.000;2023-07-31T20:31:55;2.13;;;1.93;;
28958;SDS011;16066;0.000;0.000;2023-07-31T20:34:20;10.77;;;1.60;;
28958;SDS011;16066;0.000;0.000;2023-07-31T20:36:46;1.87;;;1.20;;
28958;SDS011;16066;0.000;0.000;2023-07-31T20:39:12;2.03;;;1.40;;
28958;SDS011;16066;0.000;0.000;2023-07-31T20:41:37;2.53;;;1.23;;